Time;durP1;ratioP1;P1;durP2;ratioP2;P2;SDS_P1;SDS_P2;PMS_P1;PMS_P2;Temp;Humidity;BMP_temperature;BMP_pressure;BME280_temperature;BME280_humidity;BME280_pressure;Samples;Min_cycle;Max_cycle;Signal;HPM_P1;HPM_P2
2023/07/02 00:01:11;;;;;;;7.20;4.80;;;;;;;25.35;64.35;99748.11;108462;1276;21982;-61
2023/07/02 00:03:39;;;;;;;5.80;5.00;;;;;;;25.32;65.45;99748.83;108430;1281;22003;-61
2023/07/02 00:06:05;;;;;;;6.90;4.90;;;;;;;25.25;65.25;99747.74;108428;1273;21971;-72
2023/07/02 00:08:30;;;;;;;7.30;5.30;;;;;;;25.20;66.38;99751.20;108453;1276;22007;-60
2023/07/02 00:10:56;;;;;;;6.00;4.80;;;;;;;25.18;66.43;99759.67;108419;1277;22160;-71
2023/07/02 00:13:21;;;;;;;5.60;4.50;;;;;;;25.14;65.40;99759.57;108438;1281;21991;-60
2023/07/02 00:15:47;;;;;;;7.20;4.90;;;;;;;25.14;65.61;99760.31;108433;1274;21989;-59
2023/07/02 00:18:16;;;;;;;7.10;4.90;;;;;;;25.15;65.54;99760.25;108441;1276;21986;-59
2023/07/02 00:20:43;;;;;;;7.10;5.30;;;;;;;25.13;65.71;99759.35;108443;1270;22079;-71
2023/07/02 00:23:09;;;;;;;6.80;4.70;;;;;;;25.09;64.82;99756.04;108512;1270;21988;-60
2023/07/02 00:25:36;;;;;;;5.80;4.90;;;;;;;25.10;65.15;99756.50;108448;1270;21973;-62
2023/07/02 00:28:02;;;;;;;7.30;5.00;;;;;;;25.09;65.09;99755.89;108482;1276;21983;-71
2023/07/02 00:30:28;;;;;;;6.00;4.60;;;;;;;25.06;65.04;99753.40;108517;1281;22448;-72
2023/07/02 00:32:54;;;;;;;7.30;4.80;;;;;;;25.04;64.79;99751.94;108449;1277;22176;-71
2023/07/02 00:35:20;;;;;;;6.00;4.40;;;;;;;25.03;65.64;99756.69;108443;1277;21983;-61
2023/07/02 00:37:45;;;;;;;6.90;5.00;;;;;;;25.02;65.38;99755.56;108459;1277;21986;-71
2023/07/02 00:40:11;;;;;;;6.30;4.30;;;;;;;25.01;65.51;99753.86;108431;1276;21980;-71
2023/07/02 00:42:37;;;;;;;5.70;4.20;;;;;;;25.01;64.72;99751.73;108438;1273;21993;-60
2023/07/02 00:45:03;;;;;;;6.90;4.70;;;;;;;25.02;65.03;99746.05;108447;1277;22439;-60
2023/07/02 00:47:35;;;;;;;6.60;4.80;;;;;;;25.02;64.78;99745.65;108439;1270;22096;-60
2023/07/02 00:50:01;;;;;;;5.90;4.40;;;;;;;25.01;64.50;99745.08;108519;1277;21983;-70
2023/07/02 00:52:28;;;;;;;7.80;4.70;;;;;;;25.00;64.22;99745.30;108434;1277;21970;-60
2023/07/02 00:54:53;;;;;;;6.30;5.10;;;;;;;25.00;64.68;99743.36;108439;1276;22050;-70
2023/07/02 00:57:19;;;;;;;6.30;4.70;;;;;;;24.95;64.13;99742.61;108270;1281;22022;-70
2023/07/02 00:59:45;;;;;;;7.60;5.00;;;;;;;24.92;64.64;99745.58;108461;1280;21950;-62
2023/07/02 01:02:12;;;;;;;7.50;4.40;;;;;;;24.89;64.38;99748.71;108267;1276;21975;-68
2023/07/02 01:04:39;;;;;;;8.00;4.40;;;;;;;24.88;64.76;99747.91;108482;1282;22018;-69
2023/07/02 01:07:09;;;;;;;7.90;5.60;;;;;;;24.86;65.07;99748.62;108492;1280;21984;-69
2023/07/02 01:09:35;;;;;;;;;;;;;;;24.81;64.83;99748.29;108451;1270;22149;-60
2023/07/02 01:12:03;;;;;;;7.30;4.70;;;;;;;24.78;65.02;99744.46;108450;1270;22015;-60
2023/07/02 01:14:40;;;;;;;8.30;4.50;;;;;;;24.74;65.05;99745.83;108492;1281;21980;-69
2023/07/02 01:17:08;;;;;;;6.00;5.00;;;;;;;24.72;65.30;99748.70;108437;1281;21972;-70
2023/07/02 01:19:52;;;;;;;5.40;4.20;;;;;;;24.69;65.22;99746.42;108274;1281;21984;-70
2023/07/02 01:22:20;;;;;;;5.70;4.20;;;;;;;24.67;65.26;99745.83;108443;1280;22446;-69
2023/07/02 01:24:48;;;;;;;5.60;4.00;;;;;;;24.67;64.93;99745.85;108538;1271;21979;-69
2023/07/02 01:27:14;;;;;;;7.30;4.40;;;;;;;24.66;64.84;99745.70;108472;1271;22018;-69
2023/07/02 01:29:41;;;;;;;5.70;4.30;;;;;;;24.64;64.71;99742.95;108497;1276;21983;-60
2023/07/02 01:32:08;;;;;;;5.80;4.70;;;;;;;24.63;64.82;99740.71;108474;1280;21986;-68
2023/07/02 01:34:35;;;;;;;5.60;4.20;;;;;;;24.62;65.07;99743.36;108459;1281;21990;-69
2023/07/02 01:37:02;;;;;;;8.40;4.40;;;;;;;24.59;64.74;99737.84;108442;1276;21984;-60
2023/07/02 01:39:28;;;;;;;6.60;4.60;;;;;;;24.57;64.39;99735.52;108485;1275;21998;-61
2023/07/02 01:42:09;;;;;;;6.50;4.40;;;;;;;24.59;64.51;99732.51;108465;1270;22062;-68
2023/07/02 01:44:38;;;;;;;7.90;4.80;;;;;;;24.60;64.63;99732.02;108403;1280;21983;-68
2023/07/02 01:47:04;;;;;;;5.40;3.60;;;;;;;24.61;64.56;99728.16;108471;1276;21992;-69
2023/07/02 01:49:29;;;;;;;5.60;3.90;;;;;;;24.70;63.69;99728.51;108412;1281;21984;-69
2023/07/02 01:51:55;;;;;;;7.30;4.20;;;;;;;24.75;63.44;99726.66;108462;1280;21984;-68
2023/07/02 01:54:22;;;;;;;5.80;4.30;;;;;;;24.66;64.14;99720.92;108294;1281;181072;-68
2023/07/02 01:56:48;;;;;;;6.40;4.20;;;;;;;24.59;64.50;99717.36;108471;1275;21981;-68
2023/07/02 01:59:14;;;;;;;7.10;4.50;;;;;;;24.57;65.09;99719.89;108463;1274;22451;-59
2023/07/02 02:01:42;;;;;;;7.20;3.90;;;;;;;24.52;65.84;99722.59;108424;1277;21977;-60
2023/07/02 02:04:08;;;;;;;6.60;4.30;;;;;;;24.49;66.08;99723.42;108499;1273;21985;-68
2023/07/02 02:06:34;;;;;;;6.70;4.60;;;;;;;24.45;67.92;99722.15;108440;1280;22440;-59
2023/07/02 02:09:00;;;;;;;4.90;3.90;;;;;;;24.41;67.66;99724.64;108451;1277;21980;-60
2023/07/02 02:11:26;;;;;;;5.10;3.80;;;;;;;24.38;68.65;99725.23;108454;1277;21995;-68
2023/07/02 02:13:54;;;;;;;6.70;4.00;;;;;;;24.35;67.43;99724.35;108510;1281;23734;-68
2023/07/02 02:16:20;;;;;;;8.00;4.10;;;;;;;24.37;67.19;99724.01;108434;1271;21987;-59
2023/07/02 02:18:45;;;;;;;8.10;4.50;;;;;;;24.39;69.06;99721.92;108421;1273;22451;-60
2023/07/02 02:21:11;;;;;;;6.40;4.20;;;;;;;24.35;69.39;99719.88;108403;1281;21980;-68
2023/07/02 02:23:37;;;;;;;5.30;4.00;;;;;;;24.34;68.98;99717.23;108386;1281;22025;-68
2023/07/02 02:26:02;;;;;;;5.40;4.00;;;;;;;24.35;69.17;99720.77;108476;1281;21982;-68
2023/07/02 02:28:28;;;;;;;6.50;4.30;;;;;;;24.35;70.39;99723.46;108434;1271;21982;-60
2023/07/02 02:30:54;;;;;;;9.80;4.30;;;;;;;24.36;71.48;99723.94;108431;1280;21991;-59
2023/07/02 02:33:21;;;;;;;5.00;3.90;;;;;;;24.37;69.76;99725.64;108449;1276;21987;-60
2023/07/02 02:35:46;;;;;;;6.30;4.40;;;;;;;24.41;70.73;99722.83;108432;1278;22618;-60
2023/07/02 02:38:14;;;;;;;6.20;4.70;;;;;;;24.43;72.33;99719.80;108439;1279;22022;-60
2023/07/02 02:40:40;;;;;;;6.20;4.30;;;;;;;24.45;71.53;99718.58;108428;1277;21988;-67
2023/07/02 02:43:05;;;;;;;5.50;4.10;;;;;;;24.47;70.60;99719.23;108500;1281;21984;-68
2023/07/02 02:45:31;;;;;;;6.20;4.00;;;;;;;24.50;72.25;99719.36;108512;1277;21975;-60
2023/07/02 02:47:57;;;;;;;5.80;4.30;;;;;;;24.52;73.44;99716.31;108508;1281;21986;-59
2023/07/02 02:50:22;;;;;;;7.00;4.20;;;;;;;24.52;76.28;99710.26;108470;1282;21986;-68
2023/07/02 02:52:48;;;;;;;7.70;4.10;;;;;;;24.55;75.05;99714.52;108486;1276;21984;-68
2023/07/02 02:55:14;;;;;;;4.90;4.10;;;;;;;24.60;72.63;99716.41;108501;1280;21974;-60
2023/07/02 02:57:42;;;;;;;5.90;3.90;;;;;;;24.65;73.61;99719.80;108516;1276;22040;-68
2023/07/02 03:00:09;;;;;;;8.60;4.40;;;;;;;24.71;73.27;99720.42;108417;1271;21988;-60
2023/07/02 03:02:36;;;;;;;6.10;4.20;;;;;;;24.77;72.59;99716.70;108516;1277;22010;-67
2023/07/02 03:05:02;;;;;;;6.80;3.90;;;;;;;24.85;72.51;99716.97;108496;1281;22015;-59
2023/07/02 03:07:29;;;;;;;10.60;4.00;;;;;;;24.91;73.75;99720.40;108460;1281;21980;-60
2023/07/02 03:09:54;;;;;;;6.30;4.20;;;;;;;24.94;73.81;99718.16;108506;1276;21986;-60
2023/07/02 03:12:21;;;;;;;6.20;4.10;;;;;;;24.98;74.03;99714.58;108490;1280;22011;-67
2023/07/02 03:14:47;;;;;;;7.30;4.10;;;;;;;25.03;72.76;99716.16;108434;1276;21984;-67
2023/07/02 03:17:14;;;;;;;6.20;3.40;;;;;;;25.09;72.93;99716.95;108480;1281;22302;-60
2023/07/02 03:19:40;;;;;;;6.20;3.90;;;;;;;25.15;72.92;99716.23;108444;1276;21992;-60
2023/07/02 03:22:06;;;;;;;5.70;3.60;;;;;;;25.21;74.11;99713.43;108437;1276;21984;-60
2023/07/02 03:24:32;;;;;;;5.10;3.50;;;;;;;25.25;73.41;99717.41;108479;1274;21989;-60
2023/07/02 03:26:57;;;;;;;6.10;3.50;;;;;;;25.29;74.27;99720.28;108403;1273;22454;-67
2023/07/02 03:29:23;;;;;;;5.20;3.30;;;;;;;25.33;74.25;99722.44;108471;1281;21985;-59
2023/07/02 03:31:49;;;;;;;7.50;3.40;;;;;;;25.38;74.05;99725.11;108518;1277;21978;-67
2023/07/02 03:34:14;;;;;;;6.60;3.50;;;;;;;25.43;73.82;99725.39;108456;1280;21980;-67
2023/07/02 03:36:40;;;;;;;6.10;4.10;;;;;;;25.48;76.30;99725.36;108416;1281;21984;-59
2023/07/02 03:39:06;;;;;;;5.30;3.70;;;;;;;25.52;76.66;99724.64;108463;1276;21984;-59
2023/07/02 03:41:31;;;;;;;5.40;3.50;;;;;;;25.58;75.48;99726.35;108477;1277;21989;-60
2023/07/02 03:43:57;;;;;;;5.70;3.60;;;;;;;25.64;76.17;99722.19;108439;1280;21955;-59
2023/07/02 03:46:23;;;;;;;6.20;3.80;;;;;;;25.69;78.71;99724.98;108466;1276;21983;-59
2023/07/02 03:48:48;;;;;;;5.50;3.30;;;;;;;25.74;78.13;99721.69;108467;1281;21981;-68
2023/07/02 03:51:14;;;;;;;6.60;3.40;;;;;;;25.80;78.18;99724.61;108439;1281;21984;-68
2023/07/02 03:53:41;;;;;;;5.10;3.30;;;;;;;25.87;78.20;99725.98;108478;1277;21989;-59
2023/07/02 03:56:07;;;;;;;6.60;2.80;;;;;;;25.96;76.67;99726.42;108534;1276;21983;-60
2023/07/02 03:58:33;;;;;;;3.90;3.10;;;;;;;26.05;76.80;99727.96;108467;1275;22261;-60
2023/07/02 04:00:58;;;;;;;5.00;3.30;;;;;;;26.13;77.59;99728.79;108433;1281;21978;-70
2023/07/02 04:03:25;;;;;;;6.70;3.60;;;;;;;26.20;78.08;99726.16;108451;1280;23051;-59
2023/07/02 04:05:50;;;;;;;5.70;3.10;;;;;;;26.29;79.57;99724.73;108478;1273;22027;-68
2023/07/02 04:08:16;;;;;;;5.00;3.30;;;;;;;26.39;77.21;99725.06;108454;1280;21982;-68
2023/07/02 04:10:43;;;;;;;5.60;3.30;;;;;;;26.48;79.37;99725.14;108460;1273;21987;-60
2023/07/02 04:13:09;;;;;;;3.90;2.70;;;;;;;26.58;78.10;99719.42;108491;1275;22010;-59
2023/07/02 04:15:34;;;;;;;9.40;3.40;;;;;;;26.69;77.12;99723.11;108462;1280;21989;-68
2023/07/02 04:18:00;;;;;;;4.70;3.00;;;;;;;26.80;76.85;99727.15;108459;1281;21983;-68
2023/07/02 04:20:26;;;;;;;6.20;3.10;;;;;;;26.97;76.87;99727.29;108433;1280;21983;-60
2023/07/02 04:22:51;;;;;;;10.50;2.90;;;;;;;27.09;75.87;99726.67;108471;1273;22075;-71
2023/07/02 04:25:17;;;;;;;5.70;2.90;;;;;;;27.20;74.91;99724.14;108507;1273;21978;-60
2023/07/02 04:27:44;;;;;;;5.00;2.70;;;;;;;27.32;74.94;99721.95;108539;1277;21992;-69
2023/07/02 04:30:10;;;;;;;6.10;2.60;;;;;;;27.44;74.21;99720.65;108481;1277;23699;-71
2023/07/02 04:32:39;;;;;;;5.40;2.30;;;;;;;27.49;73.91;99722.70;108435;1276;23055;-62
2023/07/02 04:35:08;;;;;;;8.90;2.50;;;;;;;27.60;72.88;99721.48;108483;1281;22266;-60
2023/07/02 04:37:35;;;;;;;4.10;2.30;;;;;;;27.70;72.17;99727.40;108501;1281;21983;-72
2023/07/02 04:40:00;;;;;;;3.90;2.00;;;;;;;27.81;71.28;99730.84;108465;1280;21986;-61
2023/07/02 04:42:31;;;;;;;4.10;2.20;;;;;;;27.88;70.38;99733.20;108478;1270;21986;-61
2023/07/02 04:45:02;;;;;;;4.40;2.50;;;;;;;27.98;69.98;99728.65;108456;1277;23683;-73
2023/07/02 04:47:29;;;;;;;11.00;2.50;;;;;;;28.11;69.55;99725.86;108473;1281;21987;-60
2023/07/02 04:49:54;;;;;;;5.80;2.10;;;;;;;28.22;68.82;99728.77;108474;1271;22074;-61
2023/07/02 04:52:21;;;;;;;4.10;2.00;;;;;;;28.33;68.22;99732.93;108501;1280;21984;-73
2023/07/02 04:54:47;;;;;;;3.50;1.70;;;;;;;28.43;67.10;99730.77;108467;1275;21986;-73
2023/07/02 04:57:14;;;;;;;6.50;2.70;;;;;;;28.49;66.67;99728.85;108481;1274;21986;-73
2023/07/02 04:59:43;;;;;;;5.40;2.00;;;;;;;28.62;65.90;99728.66;108452;1280;22740;-61
2023/07/02 05:02:09;;;;;;;3.90;2.00;;;;;;;28.76;65.25;99728.56;108485;1281;21982;-73
2023/07/02 05:04:35;;;;;;;4.10;1.80;;;;;;;28.89;64.98;99726.63;108448;1281;21977;-61
2023/07/02 05:07:01;;;;;;;5.70;2.10;;;;;;;28.99;64.19;99725.75;108492;1280;21982;-73
2023/07/02 05:09:26;;;;;;;4.60;1.90;;;;;;;29.10;62.59;99726.52;108472;1280;22158;-61
2023/07/02 05:11:52;;;;;;;7.10;2.50;;;;;;;29.15;61.61;99728.35;108458;1281;22012;-73
2023/07/02 05:14:17;;;;;;;4.30;1.80;;;;;;;29.23;60.65;99727.55;108470;1276;21992;-61
2023/07/02 05:16:43;;;;;;;4.60;1.90;;;;;;;29.28;60.16;99730.25;108468;1277;21999;-61
2023/07/02 05:19:09;;;;;;;3.70;1.70;;;;;;;29.36;59.48;99732.89;108469;1273;21985;-61
2023/07/02 05:21:34;;;;;;;7.60;1.80;;;;;;;29.45;59.07;99733.61;108483;1275;21953;-74
2023/07/02 05:24:00;;;;;;;4.70;2.20;;;;;;;29.57;58.81;99738.23;108497;1280;21979;-72
2023/07/02 05:26:26;;;;;;;4.20;1.80;;;;;;;29.66;58.29;99737.30;108476;1274;22030;-74
2023/07/02 05:28:54;;;;;;;4.70;1.80;;;;;;;29.75;57.93;99737.62;108487;1280;21984;-73
2023/07/02 05:31:20;;;;;;;4.40;1.80;;;;;;;29.89;57.39;99735.30;108492;1281;21991;-61
2023/07/02 05:33:45;;;;;;;4.50;1.90;;;;;;;29.97;55.93;99740.60;108494;1281;21985;-73
2023/07/02 05:36:11;;;;;;;7.50;2.00;;;;;;;30.14;56.86;99744.53;108496;1281;21979;-74
2023/07/02 05:38:36;;;;;;;4.40;1.90;;;;;;;30.29;55.85;99741.98;108482;1280;24009;-73
2023/07/02 05:41:03;;;;;;;3.90;1.70;;;;;;;30.41;55.59;99741.48;108490;1281;21990;-69
2023/07/02 05:43:29;;;;;;;6.70;2.00;;;;;;;30.50;54.75;99747.25;108504;1277;22019;-61
2023/07/02 05:45:58;;;;;;;9.00;2.10;;;;;;;30.56;53.27;99747.84;108508;1277;21984;-62
2023/07/02 05:48:23;;;;;;;2.80;1.50;;;;;;;30.59;52.68;99741.38;108485;1277;21982;-61
2023/07/02 05:50:49;;;;;;;5.80;1.80;;;;;;;30.61;51.77;99741.20;108584;1281;21981;-74
2023/07/02 05:53:14;;;;;;;3.60;1.50;;;;;;;30.71;51.45;99740.66;108485;1281;23624;-61
2023/07/02 05:55:42;;;;;;;5.20;1.90;;;;;;;30.79;49.80;99738.89;108536;1277;22001;-61
2023/07/02 05:58:07;;;;;;;4.00;1.70;;;;;;;30.89;48.42;99733.13;108509;1274;21987;-75
2023/07/02 06:00:33;;;;;;;3.90;1.60;;;;;;;30.94;47.24;99732.80;108439;1281;21972;-61
2023/07/02 06:02:58;;;;;;;2.80;1.40;;;;;;;31.06;48.25;99723.88;108510;1277;21981;-73
2023/07/02 06:05:24;;;;;;;3.70;1.70;;;;;;;31.14;47.09;99722.46;108487;1280;24098;-74
2023/07/02 06:07:50;;;;;;;2.80;1.80;;;;;;;31.19;45.98;99721.77;108501;1280;22737;-74
2023/07/02 06:10:16;;;;;;;3.70;1.60;;;;;;;31.33;46.13;99716.61;108476;1277;21985;-62
2023/07/02 06:12:43;;;;;;;3.80;1.60;;;;;;;31.40;45.64;99719.43;108530;1281;22448;-63
2023/07/02 06:15:09;;;;;;;3.90;2.10;;;;;;;31.48;45.09;99716.91;108466;1281;21990;-73
2023/07/02 06:17:35;;;;;;;4.10;1.60;;;;;;;31.58;44.88;99718.14;108528;1277;21994;-72
2023/07/02 06:20:05;;;;;;;4.20;1.70;;;;;;;31.71;43.91;99717.96;108483;1274;21983;-72
2023/07/02 06:22:31;;;;;;;6.10;2.00;;;;;;;31.88;42.72;99722.33;108502;1271;23142;-61
2023/07/02 06:24:57;;;;;;;3.10;1.60;;;;;;;31.90;42.60;99720.29;108506;1281;21969;-61
2023/07/02 06:27:23;;;;;;;3.60;1.70;;;;;;;32.03;42.61;99722.46;108491;1271;21967;-61
2023/07/02 06:29:50;;;;;;;6.70;2.10;;;;;;;32.11;41.16;99716.61;108480;1281;21991;-74
2023/07/02 06:32:15;;;;;;;2.90;1.90;;;;;;;32.24;41.94;99712.11;108498;1271;21982;-72
2023/07/02 06:34:43;;;;;;;2.20;1.60;;;;;;;32.40;41.26;99713.73;108485;1280;21992;-73
2023/07/02 06:37:09;;;;;;;2.90;1.80;;;;;;;32.51;40.88;99711.90;108500;1281;21981;-72
2023/07/02 06:39:35;;;;;;;4.50;1.90;;;;;;;32.65;41.05;99712.64;108481;1281;21981;-72
2023/07/02 06:42:01;;;;;;;6.10;1.90;;;;;;;32.78;40.97;99710.10;108487;1279;21982;-62
2023/07/02 06:44:27;;;;;;;5.70;1.90;;;;;;;32.83;39.29;99710.54;108502;1281;22018;-62
2023/07/02 06:46:52;;;;;;;3.90;1.80;;;;;;;32.99;39.59;99709.69;108477;1280;21996;-61
2023/07/02 06:49:18;;;;;;;2.60;1.60;;;;;;;33.11;39.17;99707.81;108500;1271;21991;-72
2023/07/02 06:51:43;;;;;;;4.50;1.70;;;;;;;33.22;38.14;99709.80;108538;1281;21984;-74
2023/07/02 06:54:09;;;;;;;4.00;1.80;;;;;;;33.31;36.61;99707.64;108466;1281;21981;-72
2023/07/02 06:56:35;;;;;;;9.60;2.00;;;;;;;33.43;37.05;99702.08;108495;1274;21979;-72
2023/07/02 06:59:01;;;;;;;3.10;1.70;;;;;;;33.56;37.86;99702.95;108495;1280;22018;-62
2023/07/02 07:01:26;;;;;;;6.00;1.50;;;;;;;33.65;36.46;99707.49;108490;1281;21978;-62
2023/07/02 07:03:52;;;;;;;3.60;2.10;;;;;;;33.67;34.57;99708.32;108463;1274;22182;-61
2023/07/02 07:06:18;;;;;;;3.20;1.40;;;;;;;33.88;35.71;99714.48;108493;1281;21978;-72
2023/07/02 07:08:43;;;;;;;3.50;1.50;;;;;;;34.06;35.51;99711.23;108465;1281;21972;-72
2023/07/02 07:11:09;;;;;;;4.90;1.70;;;;;;;34.08;34.50;99704.84;108487;1271;21986;-72
2023/07/02 07:13:36;;;;;;;2.70;1.40;;;;;;;34.15;34.04;99706.93;108470;1280;21981;-62
2023/07/02 07:16:02;;;;;;;4.90;1.60;;;;;;;34.20;32.60;99702.63;108512;1274;21985;-73
2023/07/02 07:18:28;;;;;;;3.30;1.50;;;;;;;34.32;32.95;99705.00;108458;1280;22015;-62
2023/07/02 07:20:54;;;;;;;2.50;1.30;;;;;;;34.30;32.49;99706.86;108503;1275;21987;-72
2023/07/02 07:23:19;;;;;;;6.80;1.70;;;;;;;34.39;32.09;99702.52;108493;1280;21981;-62
2023/07/02 07:25:45;;;;;;;3.30;1.40;;;;;;;34.53;31.85;99703.84;108513;1281;22035;-66
2023/07/02 07:28:19;;;;;;;5.60;1.80;;;;;;;34.63;31.17;99702.27;108523;1281;21981;-72
2023/07/02 07:30:45;;;;;;;2.50;1.30;;;;;;;34.85;31.65;99698.09;108513;1281;21982;-66
2023/07/02 07:33:10;;;;;;;2.70;1.60;;;;;;;35.02;29.92;99700.20;108470;1281;21992;-72
2023/07/02 07:35:36;;;;;;;4.80;1.40;;;;;;;35.09;28.85;99699.61;108475;1280;21995;-63
2023/07/02 07:38:02;;;;;;;2.50;1.50;;;;;;;35.15;28.77;99696.34;108503;1271;22036;-63
2023/07/02 07:40:28;;;;;;;3.40;1.50;;;;;;;35.27;29.28;99697.70;108507;1277;21981;-62
2023/07/02 07:42:54;;;;;;;3.30;1.50;;;;;;;35.43;28.93;99696.62;108476;1281;21983;-62
2023/07/02 07:45:20;;;;;;;4.70;1.60;;;;;;;35.53;28.47;99694.73;108457;1277;22016;-73
2023/07/02 07:47:46;;;;;;;2.90;1.50;;;;;;;35.61;28.54;99696.89;108519;1276;22018;-63
2023/07/02 07:50:11;;;;;;;4.90;1.60;;;;;;;35.65;28.70;99692.29;108477;1275;21978;-62
2023/07/02 07:52:38;;;;;;;3.10;1.50;;;;;;;35.71;28.05;99692.27;108468;1281;21998;-72
2023/07/02 07:55:05;;;;;;;3.60;1.40;;;;;;;35.71;26.83;99694.60;108470;1274;21992;-63
2023/07/02 07:57:33;;;;;;;3.20;1.60;;;;;;;35.82;28.15;99691.04;108520;1271;21985;-63
2023/07/02 08:00:00;;;;;;;3.80;1.90;;;;;;;35.92;27.38;99693.64;108569;1274;23736;-62
2023/07/02 08:02:26;;;;;;;3.50;1.50;;;;;;;36.00;26.53;99698.45;108469;1275;21975;-62
2023/07/02 08:04:51;;;;;;;2.50;1.60;;;;;;;36.09;27.30;99691.59;108478;1281;21979;-63
2023/07/02 08:07:17;;;;;;;5.90;2.10;;;;;;;36.11;26.78;99691.64;108464;1275;21976;-63
2023/07/02 08:09:43;;;;;;;4.40;1.90;;;;;;;36.28;27.40;99691.04;108485;1274;22014;-72
2023/07/02 08:12:08;;;;;;;4.00;1.70;;;;;;;36.46;27.46;99682.82;108485;1281;22010;-61
2023/07/02 08:14:35;;;;;;;5.90;1.80;;;;;;;36.61;27.78;99682.58;108499;1277;21952;-62
2023/07/02 08:17:01;;;;;;;2.80;1.80;;;;;;;36.80;27.62;99684.00;108453;1277;21979;-62
2023/07/02 08:19:26;;;;;;;6.10;1.70;;;;;;;36.97;26.77;99687.64;108484;1277;21981;-72
2023/07/02 08:21:52;;;;;;;4.80;1.70;;;;;;;37.00;25.84;99685.59;108418;1277;22021;-63
2023/07/02 08:24:17;;;;;;;3.30;1.60;;;;;;;36.99;25.65;99685.14;108393;1280;22068;-72
2023/07/02 08:26:44;;;;;;;5.50;1.70;;;;;;;37.01;25.77;99677.02;108462;1280;21987;-70
2023/07/02 08:29:10;;;;;;;5.00;1.40;;;;;;;37.19;25.85;99681.28;108476;1277;21983;-62
2023/07/02 08:31:36;;;;;;;3.10;1.60;;;;;;;37.38;26.29;99686.59;108454;1281;21958;-71
2023/07/02 08:34:02;;;;;;;3.90;2.10;;;;;;;37.36;25.01;99689.80;108471;1277;22448;-62
2023/07/02 08:36:28;;;;;;;2.60;1.70;;;;;;;37.27;25.00;99690.90;108464;1281;21984;-63
2023/07/02 08:38:54;;;;;;;4.60;1.80;;;;;;;37.36;25.87;99686.55;108470;1276;21973;-60
2023/07/02 08:41:20;;;;;;;3.30;1.60;;;;;;;37.47;25.32;99686.10;108241;1277;21981;-71
2023/07/02 08:43:48;;;;;;;5.20;1.70;;;;;;;37.60;25.76;99684.18;108458;1281;21995;-63
2023/07/02 08:46:15;;;;;;;4.90;1.80;;;;;;;37.70;26.54;99680.34;108445;1277;21991;-69
2023/07/02 08:48:41;;;;;;;3.80;1.80;;;;;;;37.80;25.73;99677.02;108521;1276;21981;-63
2023/07/02 08:51:06;;;;;;;5.30;1.80;;;;;;;37.82;25.85;99680.16;108246;1282;21984;-70
2023/07/02 08:53:33;;;;;;;2.70;1.80;;;;;;;37.81;25.23;99683.50;108418;1281;21983;-62
2023/07/02 08:56:05;;;;;;;7.10;2.20;;;;;;;37.86;25.85;99684.13;108454;1280;22178;-72
2023/07/02 08:58:31;;;;;;;4.40;1.70;;;;;;;37.95;26.46;99679.50;108413;1271;21969;-71
2023/07/02 09:01:07;;;;;;;4.60;2.10;;;;;;;37.99;26.05;99684.96;108207;1282;24302;-72
2023/07/02 09:03:33;;;;;;;3.80;2.10;;;;;;;37.95;26.04;99681.34;108430;1271;21977;-71
2023/07/02 09:05:59;;;;;;;5.60;1.90;;;;;;;37.89;25.19;99683.83;108425;1274;22458;-72
2023/07/02 09:08:28;;;;;;;2.70;2.00;;;;;;;37.82;25.50;99679.23;108423;1281;22445;-70
2023/07/02 09:11:06;;;;;;;2.80;1.70;;;;;;;37.96;26.43;99673.63;108419;1281;22024;-70
2023/07/02 09:13:41;;;;;;;5.40;2.20;;;;;;;38.04;25.82;99671.48;108426;1281;21983;-71
2023/07/02 09:16:06;;;;;;;5.50;1.50;;;;;;;38.13;25.61;99679.36;108523;1281;21985;-64
2023/07/02 09:18:32;;;;;;;6.50;2.80;;;;;;;38.14;25.39;99679.48;108460;1281;21970;-63
2023/07/02 09:20:58;;;;;;;4.90;2.20;;;;;;;38.20;24.68;99680.71;108485;1281;22029;-65
2023/07/02 09:23:35;;;;;;;5.40;2.60;;;;;;;38.28;25.10;99681.48;108439;1280;22019;-72
2023/07/02 09:26:01;;;;;;;1.90;1.40;;;;;;;38.33;25.45;99678.73;108517;1281;21988;-72
2023/07/02 09:28:26;;;;;;;5.80;2.40;;;;;;;38.42;24.99;99685.80;108388;1277;21988;-69
2023/07/02 09:30:56;;;;;;;4.80;1.50;;;;;;;38.39;24.90;99676.81;108550;1281;21990;-69
2023/07/02 09:33:27;;;;;;;5.40;2.30;;;;;;;38.33;25.35;99676.45;108478;1274;21986;-64
2023/07/02 09:35:56;;;;;;;7.90;3.20;;;;;;;38.39;25.14;99676.86;108526;1281;21982;-71
2023/07/02 09:38:22;;;;;;;7.60;2.10;;;;;;;38.40;24.45;99673.42;108391;1273;22009;-62
2023/07/02 09:40:52;;;;;;;4.90;1.80;;;;;;;38.60;25.07;99671.88;108194;1281;21984;-64
2023/07/02 09:43:18;;;;;;;12.60;2.40;;;;;;;38.69;24.70;99674.77;108222;1273;21962;-67
2023/07/02 09:45:47;;;;;;;7.70;2.10;;;;;;;38.68;24.61;99673.13;108476;1281;21991;-61
2023/07/02 09:48:14;;;;;;;5.30;1.80;;;;;;;38.71;24.37;99677.59;108443;1277;21981;-62
2023/07/02 09:50:44;;;;;;;4.70;1.90;;;;;;;38.67;24.58;99676.95;108457;1280;22103;-62
2023/07/02 09:53:10;;;;;;;3.90;1.70;;;;;;;38.66;24.56;99677.75;108362;1282;22024;-68
2023/07/02 09:55:38;;;;;;;20.60;2.90;;;;;;;38.70;24.90;99670.20;108434;1277;22081;-61
2023/07/02 09:58:04;;;;;;;5.00;1.80;;;;;;;38.69;24.01;99669.83;108398;1281;22091;-62
2023/07/02 10:00:32;;;;;;;5.20;1.70;;;;;;;38.67;23.89;99671.41;108471;1281;21994;-62
2023/07/02 10:02:57;;;;;;;2.70;1.50;;;;;;;38.73;23.59;99670.39;108306;1272;21991;-62
2023/07/02 10:05:31;;;;;;;2.70;1.50;;;;;;;38.85;23.95;99669.73;108496;1281;23618;-70
2023/07/02 10:08:12;;;;;;;7.60;2.20;;;;;;;38.99;23.92;99667.70;108709;1278;23049;-70
2023/07/02 10:10:40;;;;;;;6.00;1.70;;;;;;;39.09;23.96;99667.36;108424;1281;21985;-68
2023/07/02 10:13:06;;;;;;;4.90;1.80;;;;;;;39.02;23.00;99669.42;108313;1282;21998;-70
2023/07/02 10:15:34;;;;;;;2.70;1.70;;;;;;;39.03;23.46;99674.48;108524;1280;22042;-70
2023/07/02 10:18:02;;;;;;;8.00;1.70;;;;;;;39.01;23.28;99669.00;108598;1278;21989;-64
2023/07/02 10:20:36;;;;;;;4.10;1.50;;;;;;;39.00;23.14;99669.08;108544;1274;21977;-69
2023/07/02 10:23:02;;;;;;;4.00;1.60;;;;;;;39.04;23.48;99661.69;108525;1281;21992;-61
2023/07/02 10:25:30;;;;;;;6.20;2.10;;;;;;;39.06;23.48;99666.11;108545;1281;22023;-63
2023/07/02 10:27:56;;;;;;;6.20;1.70;;;;;;;39.08;23.11;99666.81;108463;1281;21987;-70
2023/07/02 10:30:36;;;;;;;3.40;1.80;;;;;;;39.11;22.71;99665.77;108456;1280;22006;-63
2023/07/02 10:33:12;;;;;;;4.20;1.90;;;;;;;39.00;21.68;99669.30;108423;1281;21988;-64
2023/07/02 10:35:44;;;;;;;5.50;1.90;;;;;;;38.70;21.66;99673.59;108425;1281;21986;-70
2023/07/02 10:38:17;;;;;;;3.20;1.90;;;;;;;38.39;22.66;99673.92;108303;1276;23386;-63
2023/07/02 10:40:43;;;;;;;4.60;1.70;;;;;;;38.18;22.49;99672.88;108403;1281;21992;-70
2023/07/02 10:43:09;;;;;;;3.80;1.70;;;;;;;38.03;22.87;99681.30;108364;1281;21987;-70
2023/07/02 10:45:35;;;;;;;3.50;1.50;;;;;;;37.96;22.86;99677.61;108353;1281;23628;-69
2023/07/02 10:48:03;;;;;;;3.10;1.60;;;;;;;37.97;22.81;99679.42;108423;1270;21994;-69
2023/07/02 10:50:30;;;;;;;6.10;1.70;;;;;;;38.10;23.07;99672.33;108424;1277;21992;-69
2023/07/02 10:52:55;;;;;;;4.20;1.70;;;;;;;38.22;22.99;99671.20;108379;1282;22008;-70
2023/07/02 10:55:23;;;;;;;3.10;1.80;;;;;;;38.34;22.94;99670.13;108347;1282;21998;-63
2023/07/02 10:57:50;;;;;;;4.30;1.90;;;;;;;38.39;22.68;99668.66;108416;1277;21992;-71
2023/07/02 11:00:17;;;;;;;4.70;1.70;;;;;;;38.38;22.79;99671.45;108452;1276;21978;-63
2023/07/02 11:02:43;;;;;;;4.40;2.20;;;;;;;38.32;22.56;99665.70;108396;1281;22098;-63
2023/07/02 11:05:12;;;;;;;7.60;2.00;;;;;;;38.26;22.59;99663.23;108373;1282;22445;-59
2023/07/02 11:07:39;;;;;;;4.50;2.00;;;;;;;38.27;22.41;99661.63;108204;1277;22163;-69
2023/07/02 11:10:06;;;;;;;4.30;1.60;;;;;;;38.22;21.93;99661.28;108427;1273;21983;-69
2023/07/02 11:12:32;;;;;;;3.50;1.90;;;;;;;38.18;22.03;99659.48;108445;1278;21995;-69
2023/07/02 11:15:08;;;;;;;3.10;1.70;;;;;;;38.08;21.99;99661.34;108406;1281;21988;-69
2023/07/02 11:17:35;;;;;;;2.50;1.70;;;;;;;38.00;22.35;99660.52;108528;1281;22098;-62
2023/07/02 11:20:00;;;;;;;2.00;1.50;;;;;;;37.91;22.41;99653.45;108420;1276;22074;-62
2023/07/02 11:22:33;;;;;;;2.20;1.40;;;;;;;38.05;22.69;99650.54;108291;1281;21983;-62